createdAt,value
2023-03-03T00:02:25.892Z,7.89
2023-03-03T00:05:29.611Z,7.95
2023-03-03T00:08:33.511Z,8.00
2023-03-03T00:11:38.505Z,8.04
2023-03-03T00:14:42.340Z,7.78
2023-03-03T00:17:46.158Z,7.66
2023-03-03T00:20:51.466Z,7.70
2023-03-03T00:23:55.603Z,7.75
2023-03-03T00:27:10.660Z,7.85
2023-03-03T00:30:21.496Z,7.77
2023-03-03T00:33:30.063Z,7.92
2023-03-03T00:36:38.569Z,8.05
2023-03-03T00:39:42.217Z,7.94
2023-03-03T00:42:51.242Z,7.78
2023-03-03T00:45:56.711Z,7.93
2023-03-03T00:49:00.748Z,7.92
2023-03-03T00:52:04.411Z,8.00
2023-03-03T00:55:09.832Z,7.96
2023-03-03T00:58:15.506Z,7.99
2023-03-03T01:01:23.160Z,7.98
2023-03-03T01:04:29.708Z,8.10
2023-03-03T01:07:33.332Z,8.16
2023-03-03T01:10:40.817Z,8.26
2023-03-03T01:13:49.615Z,8.18
2023-03-03T01:16:53.371Z,8.32
2023-03-03T01:19:56.970Z,8.21
2023-03-03T01:23:00.647Z,8.22
2023-03-03T01:26:05.372Z,8.25
2023-03-03T01:29:11.235Z,8.22
2023-03-03T01:32:14.851Z,8.44
2023-03-03T01:35:19.418Z,8.51
2023-03-03T01:38:23.293Z,8.58
2023-03-03T01:41:30.469Z,8.57
2023-03-03T01:44:35.867Z,8.49
2023-03-03T01:47:39.476Z,8.46
2023-03-03T01:50:47.354Z,8.51
2023-03-03T01:53:53.624Z,8.38
2023-03-03T01:57:00.904Z,8.40
2023-03-03T02:00:08.318Z,8.47
2023-03-03T02:03:18.172Z,8.48
2023-03-03T02:06:25.635Z,8.48
2023-03-03T02:09:39.965Z,8.31
2023-03-03T02:12:46.585Z,8.38
2023-03-03T02:15:51.852Z,8.31
2023-03-03T02:18:55.860Z,8.46
2023-03-03T02:22:02.476Z,8.56
2023-03-03T02:25:12.017Z,8.42
2023-03-03T02:28:17.492Z,8.50
2023-03-03T02:31:24.114Z,8.49
2023-03-03T02:34:28.012Z,8.33
2023-03-03T02:37:31.684Z,8.27
2023-03-03T02:40:39.406Z,8.17
2023-03-03T02:43:53.645Z,8.05
2023-03-03T02:46:58.789Z,8.26
2023-03-03T02:50:02.355Z,8.18
2023-03-03T02:53:06.526Z,8.30
2023-03-03T02:56:10.351Z,8.22
2023-03-03T02:59:16.052Z,8.21
2023-03-03T03:02:23.797Z,8.27
2023-03-03T03:05:27.505Z,8.32
2023-03-03T03:08:31.636Z,7.97
2023-03-03T03:11:36.588Z,7.91
2023-03-03T03:14:42.213Z,7.97
2023-03-03T03:17:45.903Z,8.03
2023-03-03T03:20:50.962Z,8.20
2023-03-03T03:23:54.599Z,8.27
2023-03-03T03:26:59.126Z,8.31
2023-03-03T03:30:06.536Z,8.10
2023-03-03T03:33:10.379Z,8.17
2023-03-03T03:36:14.422Z,8.17
2023-03-03T03:39:18.823Z,8.25
2023-03-03T03:42:24.358Z,8.33
2023-03-03T03:45:30.162Z,8.36
2023-03-03T03:48:34.228Z,8.24
2023-03-03T03:51:41.599Z,8.36
2023-03-03T03:54:48.489Z,8.29
2023-03-03T03:57:53.340Z,8.08
2023-03-03T04:01:04.433Z,8.16
2023-03-03T04:04:09.207Z,7.97
2023-03-03T04:07:13.056Z,7.99
2023-03-03T04:10:18.073Z,8.27
2023-03-03T04:13:23.508Z,8.12
2023-03-03T04:16:28.654Z,8.02
2023-03-03T04:19:32.865Z,7.82
2023-03-03T04:22:37.258Z,7.88
2023-03-03T04:25:41.592Z,7.82
2023-03-03T04:28:50.673Z,7.82
2023-03-03T04:31:56.748Z,7.84
2023-03-03T04:35:07.769Z,7.96
2023-03-03T04:38:14.031Z,7.99
2023-03-03T04:41:18.741Z,7.96
2023-03-03T04:44:22.721Z,7.84
2023-03-03T04:47:27.847Z,7.87
2023-03-03T04:50:31.733Z,7.89
2023-03-03T04:53:36.812Z,7.94
2023-03-03T04:56:40.523Z,8.06
2023-03-03T04:59:45.061Z,8.06
2023-03-03T05:02:50.707Z,8.08
2023-03-03T05:05:54.661Z,8.06
2023-03-03T05:08:58.283Z,7.92
2023-03-03T05:12:02.010Z,7.95
2023-03-03T05:15:07.142Z,8.02
2023-03-03T05:18:12.561Z,7.96
2023-03-03T05:21:16.105Z,8.03
2023-03-03T05:24:19.601Z,8.16
2023-03-03T05:27:23.214Z,7.98
2023-03-03T05:30:26.838Z,8.07
2023-03-03T05:33:31.989Z,8.00
2023-03-03T05:36:35.537Z,8.12
2023-03-03T05:39:39.134Z,8.19
2023-03-03T05:42:42.733Z,8.24
2023-03-03T05:45:46.332Z,8.16
2023-03-03T05:48:51.397Z,7.95
2023-03-03T05:51:54.940Z,8.20
2023-03-03T05:54:58.725Z,8.25
2023-03-03T05:58:02.308Z,8.41
2023-03-03T06:01:06.233Z,8.17
2023-03-03T06:04:11.411Z,8.28
2023-03-03T06:07:15.156Z,8.27
2023-03-03T06:10:19.072Z,8.36
2023-03-03T06:13:27.383Z,8.38
2023-03-03T06:16:31.110Z,8.23
2023-03-03T06:19:36.284Z,8.58
2023-03-03T06:22:39.974Z,8.57
2023-03-03T06:25:44.800Z,8.65
2023-03-03T06:28:50.395Z,8.79
2023-03-03T06:31:54.454Z,8.81
2023-03-03T06:34:59.827Z,8.88
2023-03-03T06:38:03.899Z,8.87
2023-03-03T06:41:08.722Z,8.86
2023-03-03T06:44:13.296Z,8.70
2023-03-03T06:47:17.233Z,8.80
2023-03-03T06:50:23.038Z,8.97
2023-03-03T06:53:28.075Z,8.62
2023-03-03T06:56:33.755Z,8.85
2023-03-03T06:59:37.460Z,8.84
2023-03-03T07:02:41.800Z,8.99
2023-03-03T07:05:47.393Z,9.11
2023-03-03T07:08:52.114Z,8.95
2023-03-03T07:12:02.473Z,9.13
2023-03-03T07:15:16.876Z,9.27
2023-03-03T07:18:38.979Z,9.35
2023-03-03T07:21:44.506Z,9.34
2023-03-03T07:24:52.767Z,8.99
2023-03-03T07:28:00.162Z,9.03
2023-03-03T07:31:16.795Z,8.97
2023-03-03T07:34:23.715Z,9.03
2023-03-03T07:37:36.919Z,9.11
2023-03-03T07:40:43.668Z,9.09
2023-03-03T07:43:55.304Z,9.03
2023-03-03T07:47:00.570Z,9.14
2023-03-03T07:50:17.896Z,9.03
2023-03-03T07:53:29.477Z,9.16
2023-03-03T07:56:36.762Z,9.29
2023-03-03T07:59:47.758Z,9.34
2023-03-03T08:02:57.386Z,8.77
2023-03-03T08:06:09.936Z,8.94
2023-03-03T08:09:51.345Z,8.67
2023-03-03T08:12:55.840Z,8.73
2023-03-03T08:16:03.617Z,8.94
2023-03-03T08:19:08.514Z,9.06
2023-03-03T08:22:17.818Z,9.22
2023-03-03T08:25:23.152Z,9.27
2023-03-03T08:28:27.375Z,9.38
2023-03-03T08:31:41.216Z,9.28
2023-03-03T08:34:46.067Z,9.37
2023-03-03T08:37:49.775Z,9.31
2023-03-03T08:40:55.025Z,9.29
2023-03-03T08:43:58.804Z,9.37
2023-03-03T08:47:02.692Z,9.48
2023-03-03T08:50:07.020Z,9.33
2023-03-03T08:53:11.485Z,9.36
2023-03-03T08:56:16.861Z,9.32
2023-03-03T08:59:20.671Z,9.35
2023-03-03T09:02:24.497Z,9.47
2023-03-03T09:05:29.147Z,9.52
2023-03-03T09:08:32.940Z,9.73
2023-03-03T09:11:38.228Z,9.47
2023-03-03T09:14:41.921Z,9.39
2023-03-03T09:17:45.890Z,9.64
2023-03-03T09:20:50.864Z,9.71
2023-03-03T09:23:56.890Z,9.57
2023-03-03T09:27:03.192Z,9.80
2023-03-03T09:30:30.489Z,9.80
2023-03-03T09:33:44.101Z,10.11
2023-03-03T09:36:48.246Z,9.90
2023-03-03T09:39:53.765Z,10.01
2023-03-03T09:43:06.292Z,10.09
2023-03-03T09:46:19.683Z,9.84
2023-03-03T09:49:32.856Z,9.78
2023-03-03T09:52:47.954Z,9.61
2023-03-03T09:56:00.493Z,9.61
2023-03-03T09:59:22.914Z,9.76
2023-03-03T10:02:37.440Z,9.70
2023-03-03T10:05:49.773Z,9.56
2023-03-03T10:09:17.822Z,9.52
2023-03-03T10:12:28.746Z,9.59
2023-03-03T10:15:48.668Z,9.63
2023-03-03T10:19:00.115Z,9.67
2023-03-03T10:22:16.432Z,9.73
2023-03-03T10:25:30.735Z,9.76
2023-03-03T10:28:57.348Z,9.74
2023-03-03T10:32:26.771Z,9.46
2023-03-03T10:36:07.017Z,9.06
2023-03-03T10:39:27.528Z,9.21
2023-03-03T10:42:48.691Z,9.39
2023-03-03T10:46:06.730Z,9.57
2023-03-03T10:49:33.067Z,9.63
2023-03-03T10:52:44.029Z,9.63
2023-03-03T10:55:57.765Z,9.77
2023-03-03T10:59:15.042Z,9.79
2023-03-03T11:02:27.174Z,9.81
2023-03-03T11:05:38.387Z,9.56
2023-03-03T11:08:47.732Z,9.73
2023-03-03T11:11:58.581Z,9.62
2023-03-03T11:15:18.797Z,9.75
2023-03-03T11:18:37.067Z,9.85
2023-03-03T11:21:48.980Z,10.01
2023-03-03T11:25:03.915Z,10.11
2023-03-03T11:28:24.463Z,10.29
2023-03-03T11:31:33.349Z,10.14
2023-03-03T11:34:49.735Z,10.45
2023-03-03T11:38:04.722Z,10.45
2023-03-03T11:41:20.788Z,10.44
2023-03-03T11:44:30.893Z,10.46
2023-03-03T11:47:40.976Z,10.48
2023-03-03T11:50:54.081Z,9.97
2023-03-03T11:54:05.863Z,10.28
2023-03-03T11:57:20.879Z,10.58
2023-03-03T12:00:32.977Z,10.73
2023-03-03T12:03:44.778Z,10.69
2023-03-03T12:07:09.736Z,10.70
2023-03-03T12:10:34.127Z,10.59
2023-03-03T12:13:51.391Z,10.65
2023-03-03T12:16:58.795Z,10.59
2023-03-03T12:20:12.591Z,10.72
2023-03-03T12:23:38.386Z,10.68
2023-03-03T12:26:54.132Z,10.78
2023-03-03T12:30:13.470Z,10.83
2023-03-03T12:33:29.228Z,10.73
2023-03-03T12:36:49.043Z,10.79
2023-03-03T12:40:03.805Z,10.83
2023-03-03T12:43:33.211Z,10.96
2023-03-03T12:46:48.263Z,10.63
2023-03-03T12:50:11.128Z,10.62
2023-03-03T12:53:30.045Z,10.16
2023-03-03T12:56:42.352Z,10.29
2023-03-03T13:00:02.391Z,10.50
2023-03-03T13:03:15.367Z,10.18
2023-03-03T13:06:29.019Z,10.25
2023-03-03T13:09:44.157Z,10.07
2023-03-03T13:12:55.902Z,10.27
2023-03-03T13:16:06.822Z,10.52
2023-03-03T13:19:17.970Z,10.45
2023-03-03T13:22:35.452Z,10.54
2023-03-03T13:25:54.828Z,10.75
2023-03-03T13:29:11.052Z,10.72
2023-03-03T13:32:21.199Z,10.60
2023-03-03T13:35:35.016Z,10.54
2023-03-03T13:38:42.953Z,9.98
2023-03-03T13:41:50.384Z,10.07
2023-03-03T13:44:56.552Z,10.37
2023-03-03T13:48:11.530Z,10.30
2023-03-03T13:51:25.051Z,10.51
2023-03-03T13:54:46.473Z,10.37
2023-03-03T13:58:01.705Z,10.43
2023-03-03T14:01:15.222Z,9.90
2023-03-03T14:04:33.590Z,9.87
2023-03-03T14:07:42.736Z,9.93
2023-03-03T14:11:05.139Z,10.02
2023-03-03T14:14:17.266Z,10.23
2023-03-03T14:17:31.235Z,10.29
2023-03-03T14:20:40.042Z,10.11
2023-03-03T14:23:57.462Z,9.97
2023-03-03T14:27:02.441Z,9.94
2023-03-03T14:30:32.353Z,10.05
2023-03-03T14:33:36.453Z,10.29
2023-03-03T14:36:44.224Z,10.39
2023-03-03T14:39:52.125Z,10.29
2023-03-03T14:42:57.434Z,10.12
2023-03-03T14:46:30.565Z,10.12
2023-03-03T14:49:36.789Z,10.21
2023-03-03T14:52:42.302Z,10.38
2023-03-03T14:55:48.279Z,10.48
2023-03-03T14:58:53.012Z,10.51
2023-03-03T15:02:10.438Z,10.44
2023-03-03T15:05:24.212Z,10.52
2023-03-03T15:08:34.491Z,10.48
2023-03-03T15:11:38.436Z,10.31
2023-03-03T15:14:47.276Z,10.48
2023-03-03T15:18:00.784Z,10.52
2023-03-03T15:21:08.505Z,10.45
2023-03-03T15:24:21.590Z,10.34
2023-03-03T15:27:31.523Z,10.48
2023-03-03T15:30:41.236Z,10.52
2023-03-03T15:33:54.629Z,10.51
2023-03-03T15:37:06.961Z,10.56
2023-03-03T15:40:22.803Z,10.56
2023-03-03T15:43:35.481Z,10.46
2023-03-03T15:46:54.314Z,10.51
2023-03-03T15:50:22.986Z,10.48
2023-03-03T15:53:44.083Z,10.38
2023-03-03T15:56:53.033Z,10.28
2023-03-03T16:00:24.983Z,10.27
2023-03-03T16:03:35.379Z,10.37
2023-03-03T16:06:51.757Z,10.32
2023-03-03T16:10:05.209Z,10.31
2023-03-03T16:13:24.375Z,10.32
2023-03-03T16:16:38.383Z,10.30
2023-03-03T16:19:50.865Z,10.37
2023-03-03T16:23:15.678Z,10.34
2023-03-03T16:26:34.438Z,10.35
2023-03-03T16:29:49.822Z,10.33
2023-03-03T16:32:58.331Z,10.17
2023-03-03T16:36:08.724Z,10.27
2023-03-03T16:39:16.905Z,10.17
2023-03-03T16:42:27.738Z,10.12
2023-03-03T16:45:37.050Z,9.99
2023-03-03T16:48:48.744Z,9.79
2023-03-03T16:52:02.529Z,9.73
2023-03-03T16:55:13.668Z,9.79
2023-03-03T16:58:31.336Z,9.66
2023-03-03T17:01:51.191Z,9.66
2023-03-03T17:05:03.378Z,9.64
2023-03-03T17:08:20.157Z,9.71
2023-03-03T17:11:33.391Z,9.69
2023-03-03T17:14:54.409Z,9.66
2023-03-03T17:18:10.726Z,9.53
2023-03-03T17:21:26.628Z,9.49
2023-03-03T17:24:41.154Z,9.40
2023-03-03T17:28:06.471Z,9.50
2023-03-03T17:31:18.546Z,9.57
2023-03-03T17:34:42.250Z,9.55
2023-03-03T17:37:52.525Z,9.73
2023-03-03T17:41:05.010Z,9.64
2023-03-03T17:44:17.864Z,9.75
2023-03-03T17:47:39.092Z,9.71
2023-03-03T17:51:21.741Z,9.65
2023-03-03T17:54:40.430Z,9.56
2023-03-03T17:58:00.650Z,9.54
2023-03-03T18:01:17.061Z,9.61
2023-03-03T18:04:43.709Z,9.50
2023-03-03T18:08:00.033Z,9.52
2023-03-03T18:11:34.624Z,8.93
2023-03-03T18:14:59.652Z,9.16
2023-03-03T18:18:06.811Z,9.13
2023-03-03T18:21:16.397Z,9.22
2023-03-03T18:24:37.866Z,9.36
2023-03-03T18:27:42.846Z,9.21
2023-03-03T18:30:59.267Z,9.25
2023-03-03T18:34:09.780Z,9.25
2023-03-03T18:37:45.292Z,9.24
2023-03-03T18:40:55.201Z,9.33
2023-03-03T18:44:02.321Z,9.21
2023-03-03T18:47:06.360Z,9.34
2023-03-03T18:50:34.129Z,9.27
2023-03-03T18:53:38.337Z,9.31
2023-03-03T18:56:51.175Z,9.24
2023-03-03T18:59:58.561Z,9.23
2023-03-03T19:03:02.543Z,9.22
2023-03-03T19:06:08.929Z,9.26
2023-03-03T19:09:19.343Z,9.18
2023-03-03T19:12:45.674Z,9.20
2023-03-03T19:16:01.453Z,9.23
2023-03-03T19:19:16.492Z,9.15
2023-03-03T19:22:26.588Z,9.08
2023-03-03T19:25:32.080Z,9.22
2023-03-03T19:28:44.626Z,9.10
2023-03-03T19:31:55.795Z,9.13
2023-03-03T19:35:10.347Z,9.13
2023-03-03T19:38:25.846Z,9.13
2023-03-03T19:41:46.180Z,9.10
2023-03-03T19:45:05.731Z,9.22
2023-03-03T19:48:22.969Z,9.15
2023-03-03T19:51:33.077Z,9.22
2023-03-03T19:54:58.795Z,9.19
2023-03-03T19:58:18.603Z,9.18
2023-03-03T20:01:30.317Z,9.10
2023-03-03T20:04:54.329Z,9.02
2023-03-03T20:08:04.028Z,8.91
2023-03-03T20:11:15.769Z,8.99
2023-03-03T20:14:37.095Z,9.01
2023-03-03T20:17:52.646Z,8.95
2023-03-03T20:21:09.587Z,8.83
2023-03-03T20:24:30.245Z,8.75
2023-03-03T20:27:42.003Z,8.75
2023-03-03T20:31:01.118Z,8.80
2023-03-03T20:34:15.639Z,8.61
2023-03-03T20:37:27.105Z,8.77
2023-03-03T20:40:37.417Z,8.70
2023-03-03T20:43:56.908Z,8.71
2023-03-03T20:47:11.607Z,8.83
2023-03-03T20:50:28.958Z,8.67
2023-03-03T20:53:45.307Z,8.79
2023-03-03T20:56:56.898Z,8.70
2023-03-03T21:00:05.969Z,8.65
2023-03-03T21:03:20.859Z,8.66
2023-03-03T21:06:41.073Z,8.69
2023-03-03T21:09:44.961Z,8.69
2023-03-03T21:12:48.689Z,8.72
2023-03-03T21:15:56.736Z,8.64
2023-03-03T21:19:01.663Z,8.72
2023-03-03T21:22:07.139Z,8.81
2023-03-03T21:25:14.361Z,8.68
2023-03-03T21:28:21.530Z,8.71
2023-03-03T21:31:25.484Z,8.67
2023-03-03T21:34:31.871Z,8.76
2023-03-03T21:37:49.437Z,8.59
2023-03-03T21:41:01.581Z,8.68
2023-03-03T21:44:46.764Z,8.47
2023-03-03T21:47:51.179Z,8.49
2023-03-03T21:50:54.998Z,8.47
2023-03-03T21:54:00.323Z,8.46
2023-03-03T21:57:04.137Z,8.38
2023-03-03T22:00:10.419Z,8.43
2023-03-03T22:03:15.663Z,8.23
2023-03-03T22:06:19.866Z,8.36
2023-03-03T22:09:25.219Z,8.27
2023-03-03T22:12:28.940Z,8.25
2023-03-03T22:15:34.166Z,8.30
2023-03-03T22:18:38.009Z,8.20
2023-03-03T22:21:41.967Z,8.34
2023-03-03T22:24:47.413Z,8.37
2023-03-03T22:27:51.228Z,8.36
2023-03-03T22:30:55.128Z,8.20
2023-03-03T22:33:59.088Z,8.20
2023-03-03T22:37:02.906Z,8.32
2023-03-03T22:40:09.321Z,8.04
2023-03-03T22:43:14.786Z,7.87
2023-03-03T22:46:18.703Z,8.09
2023-03-03T22:49:22.525Z,8.19
2023-03-03T22:52:26.736Z,8.34
2023-03-03T22:55:32.300Z,8.27
2023-03-03T22:58:36.003Z,7.95
2023-03-03T23:01:39.805Z,8.01
2023-03-03T23:04:43.544Z,8.19
2023-03-03T23:07:47.499Z,8.24
2023-03-03T23:10:52.604Z,8.34
2023-03-03T23:13:56.474Z,8.22
2023-03-03T23:17:00.200Z,8.24
2023-03-03T23:20:03.900Z,8.31
2023-03-03T23:23:07.591Z,8.37
2023-03-03T23:26:12.812Z,8.21
2023-03-03T23:29:16.493Z,8.29
2023-03-03T23:32:21.765Z,8.31
2023-03-03T23:35:25.520Z,8.20
2023-03-03T23:38:29.281Z,8.28
2023-03-03T23:41:34.596Z,8.30
2023-03-03T23:44:38.938Z,8.03
2023-03-03T23:47:43.348Z,7.92
2023-03-03T23:50:46.910Z,7.89
2023-03-03T23:53:50.599Z,7.97
2023-03-03T23:56:55.979Z,7.93
2023-03-03T23:59:59.557Z,7.77
